createdAt,value
2017-07-05T00:00:01.870Z,2.90
2017-07-05T00:02:30.263Z,2.70
2017-07-05T00:04:58.621Z,2.27
2017-07-05T00:07:26.892Z,2.60
2017-07-05T00:09:55.487Z,2.60
2017-07-05T00:12:23.778Z,2.97
2017-07-05T00:14:52.448Z,2.97
2017-07-05T00:17:21.153Z,2.50
2017-07-05T00:19:49.842Z,2.93
2017-07-05T00:22:18.434Z,2.50
2017-07-05T00:24:47.989Z,3.70
2017-07-05T00:27:17.049Z,2.80
2017-07-05T00:29:45.425Z,2.80
2017-07-05T00:32:13.708Z,2.93
2017-07-05T00:34:42.284Z,3.33
2017-07-05T00:37:10.658Z,2.80
2017-07-05T00:39:39.167Z,2.50
2017-07-05T00:42:07.660Z,2.90
2017-07-05T00:44:36.350Z,2.20
2017-07-05T00:47:04.905Z,2.97
2017-07-05T00:49:33.190Z,3.43
2017-07-05T00:52:02.719Z,2.87
2017-07-05T00:54:31.726Z,3.40
2017-07-05T00:57:00.025Z,2.80
2017-07-05T00:59:28.608Z,2.73
2017-07-05T01:01:57.615Z,3.40
2017-07-05T01:04:27.658Z,2.80
2017-07-05T01:06:57.038Z,3.03
2017-07-05T01:09:25.907Z,2.87
2017-07-05T01:11:55.247Z,2.70
2017-07-05T01:14:24.302Z,2.90
2017-07-05T01:16:52.563Z,3.97
2017-07-05T01:19:20.863Z,2.60
2017-07-05T01:21:49.148Z,3.03
2017-07-05T01:24:17.776Z,2.80
2017-07-05T01:26:46.324Z,2.60
2017-07-05T01:29:15.326Z,2.53
2017-07-05T01:31:43.821Z,3.33
2017-07-05T01:34:12.087Z,3.10
2017-07-05T01:36:40.409Z,2.67
2017-07-05T01:39:08.710Z,3.33
2017-07-05T01:41:37.499Z,3.10
2017-07-05T01:44:06.134Z,2.60
2017-07-05T01:46:34.408Z,2.93
2017-07-05T01:49:02.704Z,2.40
2017-07-05T01:51:30.994Z,3.47
2017-07-05T01:54:00.140Z,2.43
2017-07-05T01:56:29.485Z,2.50
2017-07-05T01:58:57.773Z,2.50
2017-07-05T02:01:26.075Z,2.93
2017-07-05T02:03:54.548Z,2.77
2017-07-05T02:06:22.811Z,3.20
2017-07-05T02:08:51.389Z,2.53
2017-07-05T02:11:20.961Z,2.27
2017-07-05T02:13:50.018Z,3.27
2017-07-05T02:16:18.445Z,3.87
2017-07-05T02:18:47.224Z,3.10
2017-07-05T02:21:15.873Z,2.87
2017-07-05T02:23:44.162Z,2.73
2017-07-05T02:26:12.555Z,2.70
2017-07-05T02:28:40.868Z,2.67
2017-07-05T02:31:10.057Z,3.20
2017-07-05T02:33:38.678Z,3.10
2017-07-05T02:36:07.949Z,2.90
2017-07-05T02:38:36.311Z,3.33
2017-07-05T02:41:05.445Z,3.00
2017-07-05T02:43:34.623Z,3.13
2017-07-05T02:46:03.214Z,3.00
2017-07-05T02:48:31.523Z,3.33
2017-07-05T02:51:00.558Z,2.90
2017-07-05T02:53:29.281Z,3.30
2017-07-05T02:55:58.581Z,3.17
2017-07-05T02:58:27.206Z,3.93
2017-07-05T03:00:56.286Z,2.90
2017-07-05T03:03:24.963Z,3.30
2017-07-05T03:05:53.268Z,5.00
2017-07-05T03:08:21.546Z,3.17
2017-07-05T03:10:51.288Z,3.63
2017-07-05T03:13:20.096Z,3.60
2017-07-05T03:15:49.092Z,2.60
2017-07-05T03:18:18.356Z,3.37
2017-07-05T03:20:46.644Z,3.30
2017-07-05T03:23:16.261Z,2.97
2017-07-05T03:25:44.622Z,3.30
2017-07-05T03:28:13.394Z,3.30
2017-07-05T03:30:42.201Z,3.07
2017-07-05T03:33:10.505Z,2.90
2017-07-05T03:35:40.161Z,2.90
2017-07-05T03:38:08.466Z,2.70
2017-07-05T03:40:38.581Z,3.13
2017-07-05T03:43:06.977Z,2.97
2017-07-05T03:45:35.247Z,4.00
2017-07-05T03:48:03.802Z,2.63
2017-07-05T03:50:32.065Z,4.20
2017-07-05T03:53:02.371Z,3.20
2017-07-05T03:55:30.737Z,2.33
2017-07-05T03:57:59.064Z,3.60
2017-07-05T04:00:29.171Z,2.87
2017-07-05T04:02:57.907Z,3.10
2017-07-05T04:05:26.786Z,2.93
2017-07-05T04:07:55.220Z,2.90
2017-07-05T04:10:23.537Z,3.60
2017-07-05T04:12:52.275Z,3.03
2017-07-05T04:15:21.571Z,3.67
2017-07-05T04:17:50.831Z,4.27
2017-07-05T04:20:20.611Z,2.63
2017-07-05T04:22:49.013Z,2.57
2017-07-05T04:25:18.117Z,3.77
2017-07-05T04:27:46.488Z,3.63
2017-07-05T04:30:15.371Z,3.37
2017-07-05T04:32:43.656Z,4.27
2017-07-05T04:35:11.926Z,3.60
2017-07-05T04:37:41.118Z,4.00
2017-07-05T04:40:09.622Z,4.23
2017-07-05T04:42:38.820Z,4.43
2017-07-05T04:45:07.223Z,4.30
2017-07-05T04:47:35.847Z,3.80
2017-07-05T04:50:04.490Z,3.47
2017-07-05T04:52:33.303Z,3.60
2017-07-05T04:55:01.952Z,4.20
2017-07-05T04:57:30.270Z,5.30
2017-07-05T04:59:58.545Z,3.50
2017-07-05T05:02:27.858Z,3.27
2017-07-05T05:04:56.247Z,3.43
2017-07-05T05:07:24.489Z,4.37
2017-07-05T05:09:52.783Z,4.50
2017-07-05T05:12:21.116Z,3.50
2017-07-05T05:14:50.965Z,3.13
2017-07-05T05:17:20.259Z,4.13
2017-07-05T05:19:48.824Z,4.00
2017-07-05T05:22:19.321Z,3.43
2017-07-05T05:24:47.704Z,4.50
2017-07-05T05:27:15.997Z,5.83
2017-07-05T05:29:44.596Z,3.63
2017-07-05T05:32:13.183Z,4.53
2017-07-05T05:34:41.832Z,5.20
2017-07-05T05:37:11.741Z,4.07
2017-07-05T05:39:40.031Z,3.90
2017-07-05T05:42:09.571Z,4.00
2017-07-05T05:44:39.101Z,3.30
2017-07-05T05:47:09.224Z,4.20
2017-07-05T05:49:38.019Z,4.40
2017-07-05T05:52:07.367Z,3.90
2017-07-05T05:54:35.658Z,3.87
2017-07-05T05:57:04.686Z,3.90
2017-07-05T05:59:32.984Z,4.23
2017-07-05T06:02:02.683Z,4.13
2017-07-05T06:04:31.069Z,3.60
2017-07-05T06:06:59.341Z,3.93
2017-07-05T06:09:28.451Z,4.70
2017-07-05T06:11:56.709Z,3.73
2017-07-05T06:14:25.039Z,2.97
2017-07-05T06:16:53.431Z,4.20
2017-07-05T06:19:22.590Z,4.70
2017-07-05T06:21:51.695Z,5.23
2017-07-05T06:24:20.511Z,4.17
2017-07-05T06:26:49.592Z,3.47
2017-07-05T06:29:18.635Z,3.67
2017-07-05T06:31:47.655Z,3.53
2017-07-05T06:34:17.110Z,4.07
2017-07-05T06:36:46.204Z,4.03
2017-07-05T06:39:15.399Z,3.10
2017-07-05T06:41:43.775Z,4.40
2017-07-05T06:44:12.389Z,3.90
2017-07-05T06:46:41.956Z,4.10
2017-07-05T06:49:10.927Z,3.17
2017-07-05T06:51:39.239Z,4.53
2017-07-05T06:54:07.631Z,3.83
2017-07-05T06:56:35.928Z,3.40
2017-07-05T06:59:04.592Z,3.70
2017-07-05T07:01:32.967Z,3.90
2017-07-05T07:04:01.658Z,3.43
2017-07-05T07:06:29.953Z,3.53
2017-07-05T07:08:58.427Z,4.50
2017-07-05T07:11:27.634Z,4.70
2017-07-05T07:13:56.431Z,4.57
2017-07-05T07:16:24.722Z,3.63
2017-07-05T07:18:53.101Z,4.77
2017-07-05T07:21:22.519Z,3.33
2017-07-05T07:23:51.170Z,2.93
2017-07-05T07:26:21.288Z,3.17
2017-07-05T07:28:49.741Z,3.40
2017-07-05T07:31:18.278Z,3.93
2017-07-05T07:33:46.571Z,3.43
2017-07-05T07:36:14.943Z,4.60
2017-07-05T07:38:43.321Z,3.27
2017-07-05T07:41:11.610Z,3.40
2017-07-05T07:43:40.212Z,4.30
2017-07-05T07:46:08.482Z,3.87
2017-07-05T07:48:36.764Z,3.30
2017-07-05T07:51:05.065Z,3.20
2017-07-05T07:53:34.623Z,3.43
2017-07-05T07:56:03.206Z,3.13
2017-07-05T07:58:31.467Z,4.47
2017-07-05T08:01:00.546Z,4.10
2017-07-05T08:03:28.911Z,3.53
2017-07-05T08:05:57.183Z,3.30
2017-07-05T08:08:26.907Z,2.97
2017-07-05T08:10:55.904Z,2.83
2017-07-05T08:13:24.309Z,2.90
2017-07-05T08:15:53.075Z,2.23
2017-07-05T08:18:21.367Z,2.47
2017-07-05T08:20:50.397Z,2.63
2017-07-05T08:23:18.743Z,2.93
2017-07-05T08:25:47.010Z,3.17
2017-07-05T08:28:15.327Z,3.10
2017-07-05T08:30:44.333Z,3.00
2017-07-05T08:33:13.016Z,2.80
2017-07-05T08:35:41.313Z,2.50
2017-07-05T08:38:10.486Z,3.20
2017-07-05T08:40:38.865Z,2.67
2017-07-05T08:43:07.128Z,2.40
2017-07-05T08:45:35.832Z,2.70
2017-07-05T08:48:04.122Z,3.20
2017-07-05T08:50:32.491Z,2.60
2017-07-05T08:53:01.415Z,2.67
2017-07-05T08:55:29.787Z,2.97
2017-07-05T08:57:58.311Z,2.70
2017-07-05T09:00:27.354Z,2.70
2017-07-05T09:02:55.648Z,2.90
2017-07-05T09:05:23.941Z,3.30
2017-07-05T09:07:52.185Z,3.10
2017-07-05T09:10:21.979Z,3.20
2017-07-05T09:12:50.941Z,3.20
2017-07-05T09:15:20.252Z,3.23
2017-07-05T09:17:49.220Z,3.07
2017-07-05T09:20:17.538Z,3.50
2017-07-05T09:22:47.371Z,2.93
2017-07-05T09:25:16.482Z,3.07
2017-07-05T09:27:45.990Z,3.13
2017-07-05T09:30:14.288Z,3.30
2017-07-05T09:32:42.663Z,2.63
2017-07-05T09:35:12.881Z,2.63
2017-07-05T09:37:41.991Z,2.63
2017-07-05T09:40:10.323Z,2.80
2017-07-05T09:42:38.704Z,2.47
2017-07-05T09:45:07.010Z,3.40
2017-07-05T09:47:35.649Z,2.90
2017-07-05T09:50:04.048Z,3.10
2017-07-05T09:52:32.545Z,2.63
2017-07-05T09:55:00.837Z,2.27
2017-07-05T09:57:30.524Z,3.13
2017-07-05T09:59:59.151Z,2.63
2017-07-05T10:02:27.533Z,2.30
2017-07-05T10:04:55.794Z,2.10
2017-07-05T10:07:24.169Z,2.33
2017-07-05T10:09:53.534Z,2.53
2017-07-05T10:12:22.903Z,2.30
2017-07-05T10:14:51.205Z,3.10
2017-07-05T10:17:20.970Z,2.80
2017-07-05T10:19:49.285Z,2.53
2017-07-05T10:22:17.623Z,2.80
2017-07-05T10:24:46.864Z,2.47
2017-07-05T10:27:15.616Z,3.20
2017-07-05T10:29:44.836Z,2.40
2017-07-05T10:32:13.235Z,2.27
2017-07-05T10:34:41.831Z,2.50
2017-07-05T10:37:10.386Z,2.47
2017-07-05T10:39:38.686Z,2.80
2017-07-05T10:42:06.996Z,2.70
2017-07-05T10:44:36.165Z,2.57
2017-07-05T10:47:04.599Z,2.10
2017-07-05T10:49:33.232Z,2.60
2017-07-05T10:52:01.554Z,2.27
2017-07-05T10:54:30.058Z,2.40
2017-07-05T10:56:58.890Z,3.00
2017-07-05T10:59:27.951Z,2.70
2017-07-05T11:01:56.594Z,2.47
2017-07-05T11:04:25.413Z,2.40
2017-07-05T11:06:55.515Z,2.70
2017-07-05T11:09:24.441Z,2.13
2017-07-05T11:11:52.704Z,2.23
2017-07-05T11:14:21.367Z,1.93
2017-07-05T11:16:49.720Z,2.17
2017-07-05T11:19:18.036Z,2.20
2017-07-05T11:21:46.354Z,1.80
2017-07-05T11:24:15.618Z,2.20
2017-07-05T11:26:45.016Z,2.10
2017-07-05T11:29:13.332Z,2.60
2017-07-05T11:31:42.424Z,2.00
2017-07-05T11:34:11.191Z,2.63
2017-07-05T11:36:39.533Z,2.63
2017-07-05T11:39:09.606Z,2.00
2017-07-05T11:41:37.942Z,2.40
2017-07-05T11:44:07.666Z,2.10
2017-07-05T11:46:36.008Z,2.13
2017-07-05T11:49:04.286Z,2.40
2017-07-05T11:51:32.884Z,2.43
2017-07-05T11:54:01.896Z,2.17
2017-07-05T11:56:31.555Z,2.70
2017-07-05T11:59:01.547Z,3.13
2017-07-05T12:01:30.404Z,2.03
2017-07-05T12:03:59.770Z,1.80
2017-07-05T12:06:28.058Z,2.67
2017-07-05T12:08:56.364Z,2.43
2017-07-05T12:11:25.880Z,2.03
2017-07-05T12:13:54.178Z,2.10
2017-07-05T12:16:23.234Z,2.17
2017-07-05T12:18:52.948Z,1.57
2017-07-05T12:21:21.663Z,1.97
2017-07-05T12:23:50.494Z,1.87
2017-07-05T12:26:19.375Z,2.17
2017-07-05T12:28:48.234Z,1.90
2017-07-05T12:31:17.861Z,1.53
2017-07-05T12:33:46.860Z,1.67
2017-07-05T12:36:15.185Z,1.80
2017-07-05T12:38:45.249Z,1.90
2017-07-05T12:41:13.915Z,2.00
2017-07-05T12:43:42.637Z,1.80
2017-07-05T12:46:11.588Z,2.23
2017-07-05T12:48:40.215Z,1.50
2017-07-05T12:51:08.495Z,1.33
2017-07-05T12:53:37.149Z,2.23
2017-07-05T12:56:07.138Z,1.90
2017-07-05T12:58:36.545Z,1.63
2017-07-05T13:01:05.630Z,2.37
2017-07-05T13:03:34.942Z,1.50
2017-07-05T13:06:03.814Z,1.60
2017-07-05T13:08:32.134Z,1.57
2017-07-05T13:11:01.660Z,2.00
2017-07-05T13:13:30.704Z,1.33
2017-07-05T13:15:59.033Z,1.20
2017-07-05T13:18:27.684Z,1.40
2017-07-05T13:20:56.773Z,1.60
2017-07-05T13:23:25.067Z,1.43
2017-07-05T13:25:53.644Z,1.50
2017-07-05T13:28:21.944Z,1.30
2017-07-05T13:30:50.908Z,1.43
2017-07-05T13:33:19.527Z,1.73
2017-07-05T13:35:49.686Z,1.43
2017-07-05T13:38:17.982Z,1.30
2017-07-05T13:40:46.560Z,1.20
2017-07-05T13:43:14.870Z,2.03
2017-07-05T13:45:43.154Z,1.50
2017-07-05T13:48:11.760Z,1.30
2017-07-05T13:50:40.971Z,1.17
2017-07-05T13:53:10.777Z,1.50
2017-07-05T13:55:39.767Z,1.00
2017-07-05T13:58:08.066Z,1.90
2017-07-05T14:00:36.467Z,1.33
2017-07-05T14:03:06.661Z,1.20
2017-07-05T14:05:34.842Z,1.50
2017-07-05T14:08:03.138Z,1.30
2017-07-05T14:10:31.735Z,2.10
2017-07-05T14:13:01.542Z,1.30
2017-07-05T14:15:32.051Z,1.20
2017-07-05T14:18:00.348Z,1.17
2017-07-05T14:20:28.658Z,1.07
2017-07-05T14:22:57.209Z,1.13
2017-07-05T14:25:25.477Z,1.20
2017-07-05T14:27:53.778Z,1.70
2017-07-05T14:30:22.393Z,1.63
2017-07-05T14:32:50.749Z,1.20
2017-07-05T14:35:20.678Z,2.60
2017-07-05T14:37:50.109Z,1.40
2017-07-05T14:40:18.606Z,1.53
2017-07-05T14:42:47.361Z,1.23
2017-07-05T14:45:16.071Z,1.27
2017-07-05T14:47:44.366Z,1.30
2017-07-05T14:50:12.783Z,1.33
2017-07-05T14:52:41.391Z,1.33
2017-07-05T14:55:10.281Z,1.30
2017-07-05T14:57:38.565Z,1.40
2017-07-05T15:00:07.148Z,1.30
2017-07-05T15:02:36.152Z,1.00
2017-07-05T15:05:04.461Z,1.40
2017-07-05T15:07:33.588Z,1.23
2017-07-05T15:10:03.237Z,1.23
2017-07-05T15:12:31.772Z,1.03
2017-07-05T15:15:00.463Z,1.20
2017-07-05T15:17:28.763Z,1.40
2017-07-05T15:19:57.565Z,1.50
2017-07-05T15:22:26.282Z,1.77
2017-07-05T15:24:54.552Z,2.10
2017-07-05T15:27:22.873Z,6.40
2017-07-05T15:29:51.412Z,3.60
2017-07-05T15:32:19.726Z,3.93
2017-07-05T15:34:48.006Z,1.60
2017-07-05T15:37:16.585Z,2.80
2017-07-05T15:39:44.876Z,2.43
2017-07-05T15:42:13.186Z,1.20
2017-07-05T15:44:41.742Z,2.20
2017-07-05T15:47:10.019Z,2.73
2017-07-05T15:49:38.301Z,4.40
2017-07-05T15:52:08.025Z,3.87
2017-07-05T15:54:36.307Z,2.80
2017-07-05T15:57:04.589Z,1.50
2017-07-05T15:59:34.802Z,1.50
2017-07-05T16:02:03.574Z,2.20
2017-07-05T16:04:31.858Z,2.80
2017-07-05T16:07:00.401Z,1.87
2017-07-05T16:09:29.451Z,3.93
2017-07-05T16:11:57.772Z,1.47
2017-07-05T16:14:26.333Z,1.50
2017-07-05T16:16:54.608Z,1.90
2017-07-05T16:19:23.491Z,2.00
2017-07-05T16:21:52.503Z,1.93
2017-07-05T16:24:20.824Z,1.40
2017-07-05T16:26:49.110Z,1.40
2017-07-05T16:29:17.761Z,1.50
2017-07-05T16:31:46.159Z,1.30
2017-07-05T16:34:14.441Z,1.50
2017-07-05T16:36:42.767Z,1.60
2017-07-05T16:39:11.815Z,1.20
2017-07-05T16:41:40.408Z,1.20
2017-07-05T16:44:08.693Z,1.27
2017-07-05T16:46:36.979Z,1.33
2017-07-05T16:49:05.627Z,1.13
2017-07-05T16:51:33.900Z,1.50
2017-07-05T16:54:02.537Z,1.57
2017-07-05T16:56:30.839Z,1.30
2017-07-05T16:58:59.118Z,1.20
2017-07-05T17:01:27.444Z,1.10
2017-07-05T17:03:55.721Z,1.20
2017-07-05T17:06:24.286Z,1.20
2017-07-05T17:08:53.348Z,1.40
2017-07-05T17:11:21.626Z,1.40
2017-07-05T17:13:50.647Z,1.30
2017-07-05T17:16:19.569Z,1.30
2017-07-05T17:18:48.936Z,1.43
2017-07-05T17:21:17.243Z,1.60
2017-07-05T17:23:45.601Z,2.40
2017-07-05T17:26:14.303Z,1.47
2017-07-05T17:28:42.983Z,1.20
2017-07-05T17:31:11.675Z,2.00
2017-07-05T17:33:40.746Z,1.50
2017-07-05T17:36:09.030Z,1.43
2017-07-05T17:38:38.150Z,1.60
2017-07-05T17:41:06.431Z,1.53
2017-07-05T17:43:35.254Z,1.40
2017-07-05T17:46:03.716Z,1.40
2017-07-05T17:48:32.346Z,1.40
2017-07-05T17:51:01.403Z,1.10
2017-07-05T17:53:29.805Z,1.93
2017-07-05T17:55:58.461Z,2.10
2017-07-05T17:58:26.764Z,1.40
2017-07-05T18:00:55.847Z,1.30
2017-07-05T18:03:24.133Z,1.53
2017-07-05T18:05:53.228Z,1.40
2017-07-05T18:08:22.278Z,1.33
2017-07-05T18:10:51.326Z,1.40
2017-07-05T18:13:19.638Z,1.20
2017-07-05T18:15:48.718Z,1.40
2017-07-05T18:18:17.005Z,1.60
2017-07-05T18:20:45.581Z,1.03
2017-07-05T18:23:14.344Z,1.30
2017-07-05T18:25:42.610Z,1.57
2017-07-05T18:28:11.727Z,2.13
2017-07-05T18:30:40.071Z,1.60
2017-07-05T18:33:09.449Z,1.33
2017-07-05T18:35:37.762Z,1.37
2017-07-05T18:38:06.045Z,1.40
2017-07-05T18:40:35.214Z,1.60
2017-07-05T18:43:04.212Z,1.40
2017-07-05T18:45:32.791Z,1.53
2017-07-05T18:48:01.090Z,1.53
2017-07-05T18:50:29.461Z,1.57
2017-07-05T18:52:57.773Z,1.23
2017-07-05T18:55:27.357Z,1.40
2017-07-05T18:57:57.581Z,1.57
2017-07-05T19:00:25.859Z,1.80
2017-07-05T19:02:54.179Z,1.57
2017-07-05T19:05:23.252Z,1.93
2017-07-05T19:07:51.571Z,1.47
2017-07-05T19:10:20.931Z,2.30
2017-07-05T19:12:49.205Z,1.80
2017-07-05T19:15:18.145Z,2.20
2017-07-05T19:17:47.230Z,2.00
2017-07-05T19:20:16.139Z,2.23
2017-07-05T19:22:45.539Z,1.97
2017-07-05T19:25:14.089Z,1.93
2017-07-05T19:27:42.370Z,2.30
2017-07-05T19:30:10.670Z,2.47
2017-07-05T19:32:38.964Z,2.30
2017-07-05T19:35:07.555Z,2.10
2017-07-05T19:37:35.825Z,2.20
2017-07-05T19:40:04.604Z,1.90
2017-07-05T19:42:32.903Z,2.30
2017-07-05T19:45:01.804Z,2.63
2017-07-05T19:47:30.537Z,2.37
2017-07-05T19:49:59.442Z,2.30
2017-07-05T19:52:32.165Z,2.53
2017-07-05T19:55:00.648Z,2.23
2017-07-05T19:57:28.924Z,2.80
2017-07-05T19:59:57.246Z,2.43
2017-07-05T20:02:26.301Z,1.97
2017-07-05T20:04:54.904Z,2.97
2017-07-05T20:07:23.181Z,3.50
2017-07-05T20:09:52.220Z,2.70
2017-07-05T20:12:21.567Z,3.47
2017-07-05T20:14:49.899Z,2.40
2017-07-05T20:17:18.945Z,3.27
2017-07-05T20:19:47.521Z,3.17
2017-07-05T20:22:16.544Z,3.27
2017-07-05T20:24:44.821Z,2.97
2017-07-05T20:27:13.379Z,2.87
2017-07-05T20:29:41.659Z,2.00
2017-07-05T20:32:09.973Z,3.07
2017-07-05T20:34:38.528Z,6.40
2017-07-05T20:37:06.801Z,7.07
2017-07-05T20:39:35.114Z,8.63
2017-07-05T20:42:03.504Z,6.50
2017-07-05T20:44:32.108Z,5.50
2017-07-05T20:47:00.897Z,4.87
2017-07-05T20:49:29.268Z,4.30
2017-07-05T20:51:57.539Z,3.70
2017-07-05T20:54:26.157Z,4.00
2017-07-05T20:56:54.974Z,3.87
2017-07-05T20:59:24.155Z,3.77
2017-07-05T21:01:53.033Z,4.10
2017-07-05T21:04:21.331Z,3.33
2017-07-05T21:06:49.911Z,4.33
2017-07-05T21:09:18.183Z,3.93
2017-07-05T21:11:46.483Z,4.50
2017-07-05T21:14:14.871Z,4.60
2017-07-05T21:16:43.756Z,4.20
2017-07-05T21:19:12.537Z,4.97
2017-07-05T21:21:40.953Z,4.90
2017-07-05T21:24:09.331Z,4.40
2017-07-05T21:26:37.611Z,4.77
2017-07-05T21:29:06.592Z,3.20
2017-07-05T21:31:35.146Z,4.33
2017-07-05T21:34:04.065Z,4.60
2017-07-05T21:36:33.154Z,3.60
2017-07-05T21:39:01.534Z,4.00
2017-07-05T21:41:29.804Z,5.00
2017-07-05T21:43:58.418Z,5.40
2017-07-05T21:46:27.512Z,5.17
2017-07-05T21:48:55.791Z,5.23
2017-07-05T21:51:24.130Z,4.63
2017-07-05T21:53:53.621Z,3.80
2017-07-05T21:56:22.183Z,4.70
2017-07-05T21:58:50.579Z,4.47
2017-07-05T22:01:19.362Z,5.07
2017-07-05T22:03:47.906Z,4.60
2017-07-05T22:06:16.173Z,4.77
2017-07-05T22:08:45.619Z,5.00
2017-07-05T22:11:14.212Z,4.87
2017-07-05T22:13:42.543Z,5.00
2017-07-05T22:16:11.611Z,5.00
2017-07-05T22:18:40.171Z,5.37
2017-07-05T22:21:09.006Z,5.10
2017-07-05T22:23:37.976Z,4.97
2017-07-05T22:26:06.577Z,5.00
2017-07-05T22:28:35.353Z,5.27
2017-07-05T22:31:03.626Z,4.57
2017-07-05T22:33:32.014Z,4.77
2017-07-05T22:36:00.273Z,6.37
2017-07-05T22:38:28.881Z,4.50
2017-07-05T22:40:57.136Z,5.30
2017-07-05T22:43:25.462Z,6.60
2017-07-05T22:45:53.841Z,6.33
2017-07-05T22:48:22.118Z,6.40
2017-07-05T22:50:50.668Z,6.00
2017-07-05T22:53:19.444Z,6.57
2017-07-05T22:55:48.483Z,6.17
2017-07-05T22:58:17.597Z,5.13
2017-07-05T23:00:46.394Z,5.33
2017-07-05T23:03:14.978Z,6.70
2017-07-05T23:05:43.769Z,6.50
2017-07-05T23:08:12.553Z,5.30
2017-07-05T23:10:41.454Z,6.60
2017-07-05T23:13:10.456Z,6.13
2017-07-05T23:15:39.026Z,5.67
2017-07-05T23:18:08.789Z,7.27
2017-07-05T23:20:37.070Z,5.90
2017-07-05T23:23:05.352Z,6.10
2017-07-05T23:25:33.703Z,5.33
2017-07-05T23:28:02.305Z,6.80
2017-07-05T23:30:30.575Z,7.43
2017-07-05T23:32:59.155Z,6.33
2017-07-05T23:35:27.435Z,6.23
2017-07-05T23:37:55.720Z,6.43
2017-07-05T23:40:24.310Z,5.83
2017-07-05T23:42:52.600Z,6.73
2017-07-05T23:45:21.602Z,5.93
2017-07-05T23:47:49.980Z,6.53
2017-07-05T23:50:18.295Z,7.10
2017-07-05T23:52:46.839Z,6.53
2017-07-05T23:55:15.742Z,6.70
2017-07-05T23:57:44.014Z,6.70
